createdAt,value
2023-03-10T00:00:08.796Z,49.39
2023-03-10T00:02:37.592Z,50.42
2023-03-10T00:05:05.970Z,50.67
2023-03-10T00:07:33.538Z,50.37
2023-03-10T00:10:01.447Z,50.11
2023-03-10T00:12:29.538Z,50.32
2023-03-10T00:14:57.561Z,50.97
2023-03-10T00:17:28.673Z,51.48
2023-03-10T00:19:56.846Z,49.98
2023-03-10T00:22:24.508Z,49.38
2023-03-10T00:24:54.998Z,50.93
2023-03-10T00:27:22.464Z,51.25
2023-03-10T00:29:51.754Z,50.51
2023-03-10T00:32:20.704Z,51.29
2023-03-10T00:34:48.858Z,52.27
2023-03-10T00:37:18.987Z,53.27
2023-03-10T00:39:52.090Z,52.82
2023-03-10T00:42:20.816Z,53.13
2023-03-10T00:44:49.639Z,53.19
2023-03-10T00:47:17.479Z,53.37
2023-03-10T00:49:45.492Z,53.61
2023-03-10T00:52:13.338Z,53.41
2023-03-10T00:54:42.093Z,53.64
2023-03-10T00:57:10.004Z,53.44
2023-03-10T00:59:49.900Z,53.27
2023-03-10T01:02:21.733Z,53.53
2023-03-10T01:04:49.818Z,53.87
2023-03-10T01:07:17.955Z,53.96
2023-03-10T01:09:45.874Z,53.73
2023-03-10T01:12:13.972Z,53.22
2023-03-10T01:14:41.504Z,53.15
2023-03-10T01:17:10.595Z,53.89
2023-03-10T01:19:38.770Z,53.59
2023-03-10T01:22:06.869Z,54.03
2023-03-10T01:24:35.003Z,53.56
2023-03-10T01:27:03.971Z,54.04
2023-03-10T01:29:31.500Z,53.81
2023-03-10T01:31:59.006Z,54.04
2023-03-10T01:34:26.898Z,54.28
2023-03-10T01:36:55.154Z,52.87
2023-03-10T01:39:22.862Z,53.59
2023-03-10T01:41:50.911Z,54.92
2023-03-10T01:44:21.250Z,55.05
2023-03-10T01:46:54.888Z,55.10
2023-03-10T01:49:36.533Z,55.55
2023-03-10T01:52:12.006Z,55.76
2023-03-10T01:54:50.022Z,55.93
2023-03-10T01:57:20.872Z,55.78
2023-03-10T01:59:50.021Z,55.56
2023-03-10T02:02:18.802Z,56.31
2023-03-10T02:04:48.856Z,55.73
2023-03-10T02:07:25.279Z,55.43
2023-03-10T02:09:54.604Z,55.87
2023-03-10T02:12:22.301Z,56.10
2023-03-10T02:14:52.149Z,54.87
2023-03-10T02:17:22.035Z,54.95
2023-03-10T02:20:12.658Z,55.94
2023-03-10T02:22:40.944Z,55.69
2023-03-10T02:25:47.645Z,56.52
2023-03-10T02:28:15.752Z,56.39
2023-03-10T02:30:47.329Z,56.02
2023-03-10T02:33:23.255Z,56.17
2023-03-10T02:35:51.891Z,56.65
2023-03-10T02:38:21.141Z,56.79
2023-03-10T02:40:52.829Z,56.45
2023-03-10T02:43:29.382Z,56.28
2023-03-10T02:46:01.863Z,57.06
2023-03-10T02:48:33.210Z,57.19
2023-03-10T02:51:05.369Z,57.04
2023-03-10T02:53:34.095Z,57.26
2023-03-10T02:56:02.393Z,56.81
2023-03-10T02:58:32.588Z,56.80
2023-03-10T03:01:01.358Z,56.62
2023-03-10T03:03:29.416Z,56.02
2023-03-10T03:05:58.197Z,56.71
2023-03-10T03:08:27.965Z,56.35
2023-03-10T03:10:57.070Z,57.47
2023-03-10T03:13:24.796Z,57.70
2023-03-10T03:15:53.367Z,57.30
2023-03-10T03:18:22.342Z,55.87
2023-03-10T03:20:51.041Z,55.35
2023-03-10T03:23:20.008Z,56.26
2023-03-10T03:25:48.044Z,57.55
2023-03-10T03:28:16.039Z,57.15
2023-03-10T03:30:45.063Z,57.79
2023-03-10T03:33:14.093Z,57.90
2023-03-10T03:35:43.694Z,57.94
2023-03-10T03:38:11.833Z,58.04
2023-03-10T03:40:41.517Z,58.15
2023-03-10T03:43:10.400Z,57.56
2023-03-10T03:45:38.311Z,57.88
2023-03-10T03:48:06.130Z,58.16
2023-03-10T03:50:34.565Z,58.10
2023-03-10T03:53:04.769Z,57.69
2023-03-10T03:55:34.811Z,56.80
2023-03-10T03:58:02.218Z,55.94
2023-03-10T04:00:31.073Z,57.27
2023-03-10T04:03:00.782Z,58.57
2023-03-10T04:05:29.260Z,58.20
2023-03-10T04:07:58.021Z,57.66
2023-03-10T04:10:29.172Z,57.61
2023-03-10T04:12:57.537Z,57.49
2023-03-10T04:15:25.646Z,57.65
2023-03-10T04:17:53.824Z,58.01
2023-03-10T04:20:21.895Z,58.38
2023-03-10T04:22:52.329Z,58.51
2023-03-10T04:25:21.141Z,59.74
2023-03-10T04:27:49.591Z,59.47
2023-03-10T04:30:18.232Z,59.09
2023-03-10T04:32:49.137Z,57.78
2023-03-10T04:35:17.765Z,57.67
2023-03-10T04:37:46.701Z,57.96
2023-03-10T04:40:15.242Z,58.83
2023-03-10T04:42:45.158Z,58.92
2023-03-10T04:45:15.198Z,59.38
2023-03-10T04:47:43.894Z,59.18
2023-03-10T04:50:17.599Z,58.77
2023-03-10T04:52:46.791Z,59.28
2023-03-10T04:55:15.433Z,58.50
2023-03-10T04:57:43.506Z,58.12
2023-03-10T05:00:12.847Z,58.57
2023-03-10T05:02:41.135Z,58.53
2023-03-10T05:05:10.445Z,58.14
2023-03-10T05:07:41.566Z,58.52
2023-03-10T05:10:14.926Z,59.28
2023-03-10T05:12:43.995Z,58.99
2023-03-10T05:15:13.289Z,59.57
2023-03-10T05:17:42.853Z,58.95
2023-03-10T05:20:16.090Z,59.78
2023-03-10T05:22:46.126Z,59.10
2023-03-10T05:25:18.779Z,59.37
2023-03-10T05:27:49.261Z,59.45
2023-03-10T05:30:17.673Z,59.03
2023-03-10T05:32:46.572Z,57.55
2023-03-10T05:35:16.188Z,58.51
2023-03-10T05:37:45.182Z,59.38
2023-03-10T05:40:19.655Z,59.34
2023-03-10T05:42:50.009Z,59.77
2023-03-10T05:45:18.768Z,59.65
2023-03-10T05:47:48.131Z,59.75
2023-03-10T05:50:18.590Z,59.55
2023-03-10T05:52:46.938Z,58.81
2023-03-10T05:55:19.945Z,58.31
2023-03-10T05:57:51.941Z,57.78
2023-03-10T06:00:21.070Z,58.38
2023-03-10T06:02:54.886Z,59.41
2023-03-10T06:05:24.152Z,59.96
2023-03-10T06:07:52.822Z,60.47
2023-03-10T06:10:22.085Z,60.67
2023-03-10T06:12:50.499Z,60.52
2023-03-10T06:15:20.005Z,60.59
2023-03-10T06:17:47.880Z,60.52
2023-03-10T06:20:17.055Z,60.63
2023-03-10T06:22:47.856Z,60.36
2023-03-10T06:25:17.653Z,60.23
2023-03-10T06:27:47.014Z,59.70
2023-03-10T06:30:17.892Z,59.92
2023-03-10T06:32:46.635Z,60.14
2023-03-10T06:35:15.170Z,60.64
2023-03-10T06:37:45.134Z,60.46
2023-03-10T06:40:18.103Z,60.92
2023-03-10T06:42:48.221Z,60.04
2023-03-10T06:45:17.987Z,60.43
2023-03-10T06:47:48.727Z,60.72
2023-03-10T06:50:19.492Z,60.18
2023-03-10T06:52:58.793Z,60.39
2023-03-10T06:55:32.986Z,60.65
2023-03-10T06:58:01.767Z,60.51
2023-03-10T07:00:30.768Z,60.18
2023-03-10T07:03:00.874Z,59.77
2023-03-10T07:05:29.497Z,58.79
2023-03-10T07:07:59.540Z,59.67
2023-03-10T07:10:28.544Z,59.85
2023-03-10T07:12:59.127Z,60.52
2023-03-10T07:15:28.734Z,60.27
2023-03-10T07:17:57.848Z,60.15
2023-03-10T07:20:25.500Z,60.25
2023-03-10T07:22:53.384Z,60.53
2023-03-10T07:25:21.979Z,60.31
2023-03-10T07:27:51.207Z,60.25
2023-03-10T07:30:20.733Z,60.26
2023-03-10T07:32:55.842Z,60.76
2023-03-10T07:35:24.873Z,60.16
2023-03-10T07:37:53.908Z,59.66
2023-03-10T07:40:25.242Z,59.49
2023-03-10T07:42:56.890Z,59.40
2023-03-10T07:45:27.561Z,59.41
2023-03-10T07:47:55.423Z,59.32
2023-03-10T07:50:25.892Z,58.35
2023-03-10T07:52:55.744Z,57.74
2023-03-10T07:55:24.630Z,57.60
2023-03-10T07:57:53.202Z,57.67
2023-03-10T08:00:21.218Z,57.84
2023-03-10T08:02:56.046Z,56.19
2023-03-10T08:05:24.190Z,57.73
2023-03-10T08:07:53.708Z,57.24
2023-03-10T08:10:21.247Z,57.16
2023-03-10T08:12:49.009Z,57.11
2023-03-10T08:15:17.909Z,56.70
2023-03-10T08:17:47.093Z,55.72
2023-03-10T08:20:16.091Z,55.14
2023-03-10T08:22:47.218Z,54.35
2023-03-10T08:25:15.021Z,53.63
2023-03-10T08:27:44.023Z,54.20
2023-03-10T08:30:19.959Z,53.70
2023-03-10T08:32:50.788Z,53.08
2023-03-10T08:35:28.695Z,52.45
2023-03-10T08:37:56.921Z,52.77
2023-03-10T08:40:28.464Z,52.14
2023-03-10T08:42:57.385Z,52.12
2023-03-10T08:45:26.005Z,52.00
2023-03-10T08:47:55.793Z,51.81
2023-03-10T08:50:24.822Z,52.17
2023-03-10T08:52:54.697Z,51.50
2023-03-10T08:55:25.110Z,52.37
2023-03-10T08:57:54.590Z,51.73
2023-03-10T09:00:25.674Z,50.75
2023-03-10T09:02:53.902Z,51.06
2023-03-10T09:05:22.106Z,51.04
2023-03-10T09:07:55.893Z,49.98
2023-03-10T09:10:25.059Z,50.05
2023-03-10T09:13:01.098Z,49.90
2023-03-10T09:15:41.542Z,49.86
2023-03-10T09:18:12.284Z,50.45
2023-03-10T09:20:43.187Z,49.66
2023-03-10T09:23:18.044Z,50.40
2023-03-10T09:25:49.100Z,50.07
2023-03-10T09:28:20.777Z,50.01
2023-03-10T09:30:51.059Z,50.31
2023-03-10T09:33:22.749Z,50.36
2023-03-10T09:36:06.001Z,49.60
2023-03-10T09:38:36.124Z,49.21
2023-03-10T09:41:19.023Z,49.52
2023-03-10T09:43:52.687Z,50.79
2023-03-10T09:46:25.968Z,49.38
2023-03-10T09:49:18.082Z,50.58
2023-03-10T09:51:50.662Z,50.33
2023-03-10T09:54:33.936Z,50.38
2023-03-10T09:57:04.703Z,49.93
2023-03-10T09:59:37.745Z,49.40
2023-03-10T10:02:21.129Z,49.98
2023-03-10T10:04:53.863Z,49.27
2023-03-10T10:07:25.736Z,48.83
2023-03-10T10:10:14.385Z,49.06
2023-03-10T10:12:43.733Z,49.72
2023-03-10T10:15:17.196Z,48.79
2023-03-10T10:18:08.335Z,49.35
2023-03-10T10:20:59.261Z,49.97
2023-03-10T10:24:01.720Z,49.73
2023-03-10T10:26:31.247Z,48.06
2023-03-10T10:29:26.620Z,48.08
2023-03-10T10:32:11.769Z,48.66
2023-03-10T10:34:47.441Z,46.85
2023-03-10T10:37:40.949Z,46.15
2023-03-10T10:40:24.718Z,45.42
2023-03-10T10:42:55.713Z,44.34
2023-03-10T10:45:54.587Z,45.15
2023-03-10T10:49:03.038Z,44.97
2023-03-10T10:51:36.093Z,46.63
2023-03-10T10:54:47.715Z,46.31
2023-03-10T10:57:25.443Z,44.90
2023-03-10T10:59:56.080Z,44.41
2023-03-10T11:02:34.689Z,45.24
2023-03-10T11:05:12.343Z,44.82
2023-03-10T11:07:40.655Z,44.43
2023-03-10T11:10:15.706Z,43.53
2023-03-10T11:13:06.885Z,42.93
2023-03-10T11:15:56.933Z,42.26
2023-03-10T11:18:36.003Z,42.40
2023-03-10T11:21:08.083Z,43.47
2023-03-10T11:23:57.895Z,43.61
2023-03-10T11:26:35.263Z,42.57
2023-03-10T11:29:29.133Z,42.47
2023-03-10T11:32:08.743Z,41.05
2023-03-10T11:34:43.790Z,41.77
2023-03-10T11:37:26.787Z,41.75
2023-03-10T11:40:11.897Z,41.83
2023-03-10T11:42:49.124Z,42.02
2023-03-10T11:45:53.774Z,40.68
2023-03-10T11:48:29.822Z,40.22
2023-03-10T11:51:00.843Z,40.00
2023-03-10T11:53:38.608Z,41.34
2023-03-10T11:56:12.662Z,40.35
2023-03-10T11:58:53.125Z,40.56
2023-03-10T12:01:31.601Z,41.22
2023-03-10T12:04:21.756Z,40.34
2023-03-10T12:12:27.315Z,38.96
2023-03-10T12:14:57.687Z,38.96
2023-03-10T12:22:46.884Z,39.01
2023-03-10T12:36:04.392Z,40.74
2023-03-10T12:41:46.015Z,41.39
2023-03-10T12:44:23.536Z,41.39
2023-03-10T12:49:41.824Z,40.83
2023-03-10T12:52:24.347Z,40.83
2023-03-10T12:58:14.741Z,40.47
2023-03-10T13:14:22.996Z,42.40
2023-03-10T13:18:19.514Z,41.21
2023-03-10T13:20:48.767Z,41.21
2023-03-10T13:29:27.933Z,43.51
2023-03-10T13:34:37.220Z,43.78
2023-03-10T13:37:14.248Z,43.78
2023-03-10T13:42:44.555Z,41.75
2023-03-10T13:45:25.934Z,41.75
2023-03-10T14:09:00.753Z,43.61
2023-03-10T14:40:49.481Z,47.67
2023-03-10T14:55:36.407Z,48.71
2023-03-10T15:03:06.315Z,49.80
2023-03-10T15:43:03.093Z,55.18
2023-03-10T15:46:42.243Z,55.98
2023-03-10T15:49:10.265Z,56.91
2023-03-10T15:51:39.393Z,56.37
2023-03-10T15:54:13.191Z,56.52
2023-03-10T15:56:48.416Z,58.07
2023-03-10T15:59:18.182Z,59.27
2023-03-10T16:04:21.145Z,61.05
2023-03-10T16:06:56.107Z,60.89
2023-03-10T16:09:38.642Z,60.09
2023-03-10T16:12:09.334Z,60.49
2023-03-10T16:14:49.245Z,59.93
2023-03-10T16:17:24.035Z,61.15
2023-03-10T16:19:54.572Z,61.03
2023-03-10T16:22:25.570Z,60.59
2023-03-10T16:24:59.353Z,60.81
2023-03-10T16:27:28.191Z,60.23
2023-03-10T16:29:56.539Z,58.51
2023-03-10T16:32:28.174Z,58.20
2023-03-10T16:34:56.955Z,57.26
2023-03-10T16:37:28.041Z,56.29
2023-03-10T16:40:00.307Z,56.03
2023-03-10T16:42:35.953Z,55.16
2023-03-10T16:45:06.153Z,53.83
2023-03-10T16:47:35.828Z,53.32
2023-03-10T16:50:09.406Z,52.77
2023-03-10T16:52:42.976Z,52.50
2023-03-10T16:55:21.084Z,53.08
2023-03-10T16:57:57.392Z,53.52
2023-03-10T17:00:31.107Z,54.63
2023-03-10T17:03:00.121Z,54.00
2023-03-10T17:05:37.354Z,55.20
2023-03-10T17:08:07.346Z,55.92
2023-03-10T17:10:44.295Z,56.06
2023-03-10T17:13:20.378Z,55.39
2023-03-10T17:15:55.708Z,56.02
2023-03-10T17:18:24.420Z,55.53
2023-03-10T17:20:53.260Z,56.46
2023-03-10T17:23:23.899Z,57.07
2023-03-10T17:25:58.696Z,57.29
2023-03-10T17:28:29.107Z,56.43
2023-03-10T17:31:10.041Z,56.56
2023-03-10T17:33:44.440Z,57.27
2023-03-10T17:38:57.273Z,56.68
2023-03-10T17:41:36.141Z,55.72
2023-03-10T17:44:07.225Z,56.32
2023-03-10T17:46:41.264Z,55.48
2023-03-10T17:51:48.167Z,55.28
2023-03-10T17:54:25.292Z,55.39
2023-03-10T17:56:55.712Z,54.82
2023-03-10T17:59:28.935Z,54.55
2023-03-10T18:02:07.392Z,53.88
2023-03-10T18:04:43.175Z,52.94
2023-03-10T18:07:14.299Z,53.00
2023-03-10T18:09:44.207Z,53.79
2023-03-10T18:12:17.270Z,54.36
2023-03-10T18:15:06.646Z,54.00
2023-03-10T18:17:43.597Z,54.27
2023-03-10T18:20:16.178Z,53.73
2023-03-10T18:22:45.745Z,54.68
2023-03-10T18:25:16.159Z,55.50
2023-03-10T18:27:54.314Z,55.07
2023-03-10T18:30:29.760Z,54.77
2023-03-10T18:35:45.442Z,54.57
2023-03-10T18:38:29.109Z,56.89
2023-03-10T18:43:39.859Z,58.71
2023-03-10T18:46:08.623Z,58.27
2023-03-10T18:48:37.095Z,57.82
2023-03-10T18:51:06.237Z,57.48
2023-03-10T18:53:40.205Z,58.06
2023-03-10T18:56:08.670Z,59.62
2023-03-10T18:58:42.214Z,60.16
2023-03-10T19:01:20.332Z,60.83
2023-03-10T19:06:35.457Z,60.46
2023-03-10T19:51:55.107Z,65.07
2023-03-10T19:54:26.295Z,65.25
2023-03-10T19:56:58.339Z,65.75
2023-03-10T20:02:22.273Z,65.41
2023-03-10T20:04:53.127Z,65.12
2023-03-10T20:07:31.324Z,65.35
2023-03-10T20:10:04.095Z,65.38
2023-03-10T20:15:11.532Z,64.00
2023-03-10T20:17:42.229Z,64.41
2023-03-10T20:20:19.088Z,64.48
2023-03-10T20:22:52.148Z,65.12
2023-03-10T20:25:27.601Z,65.35
2023-03-10T20:27:57.279Z,65.88
2023-03-10T20:30:28.308Z,65.61
2023-03-10T20:33:01.973Z,65.79
2023-03-10T20:35:40.170Z,65.59
2023-03-10T20:38:13.923Z,66.66
2023-03-10T20:40:44.279Z,67.47
2023-03-10T20:43:22.533Z,65.03
2023-03-10T20:45:57.296Z,65.16
2023-03-10T20:48:28.254Z,66.29
2023-03-10T20:51:02.091Z,65.14
2023-03-10T20:53:37.477Z,63.45
2023-03-10T20:56:10.400Z,65.12
2023-03-10T20:58:46.164Z,66.85
2023-03-10T21:01:21.527Z,67.27
2023-03-10T21:03:55.190Z,67.49
2023-03-10T21:06:27.388Z,66.65
2023-03-10T21:08:59.058Z,66.49
2023-03-10T21:11:28.102Z,66.23
2023-03-10T21:13:57.159Z,66.25
2023-03-10T21:16:25.246Z,64.57
2023-03-10T21:21:31.777Z,65.51
2023-03-10T21:24:01.111Z,65.73
2023-03-10T21:26:33.524Z,64.70
2023-03-10T21:29:06.261Z,64.01
2023-03-10T21:31:36.176Z,63.55
2023-03-10T21:34:10.200Z,64.05
2023-03-10T21:36:40.276Z,64.94
2023-03-10T21:39:09.112Z,64.87
2023-03-10T21:41:37.625Z,64.96
2023-03-10T21:44:06.246Z,64.79
2023-03-10T21:46:35.172Z,65.60
2023-03-10T21:49:04.102Z,64.13
2023-03-10T21:51:37.840Z,65.09
2023-03-10T21:54:14.817Z,64.44
2023-03-10T21:56:44.833Z,66.21
2023-03-10T21:59:12.500Z,64.96
2023-03-10T22:01:41.317Z,66.32
2023-03-10T22:04:14.424Z,66.08
2023-03-10T22:06:43.529Z,66.33
2023-03-10T22:09:16.135Z,65.56
2023-03-10T22:11:44.179Z,64.78
2023-03-10T22:14:15.220Z,64.78
2023-03-10T22:16:44.085Z,63.99
2023-03-10T22:19:12.401Z,65.83
2023-03-10T22:21:41.983Z,65.45
2023-03-10T22:24:10.807Z,65.35
2023-03-10T22:26:39.568Z,65.26
2023-03-10T22:29:07.437Z,65.56
2023-03-10T22:31:35.764Z,64.60
2023-03-10T22:34:03.461Z,65.47
2023-03-10T22:36:33.722Z,65.47
2023-03-10T22:39:02.141Z,64.49
2023-03-10T22:41:30.120Z,64.34
2023-03-10T22:43:59.066Z,63.86
2023-03-10T22:46:27.405Z,62.93
2023-03-10T22:48:55.741Z,63.27
2023-03-10T22:51:23.880Z,63.61
2023-03-10T22:53:51.551Z,62.30
2023-03-10T22:56:19.313Z,63.25
2023-03-10T22:58:47.284Z,62.74
2023-03-10T23:01:15.215Z,63.48
2023-03-10T23:03:42.972Z,62.42
2023-03-10T23:06:16.499Z,62.17
2023-03-10T23:08:44.432Z,61.80
2023-03-10T23:11:17.093Z,61.24
2023-03-10T23:13:44.994Z,62.92
2023-03-10T23:16:13.403Z,61.94
2023-03-10T23:18:41.368Z,60.83
2023-03-10T23:21:10.535Z,60.04
2023-03-10T23:23:48.849Z,60.73
2023-03-10T23:26:16.504Z,58.86
2023-03-10T23:28:44.841Z,57.02
2023-03-10T23:31:15.651Z,55.61
2023-03-10T23:33:44.773Z,58.70
2023-03-10T23:36:13.661Z,57.09
2023-03-10T23:38:41.381Z,57.22
2023-03-10T23:41:09.728Z,55.84
2023-03-10T23:43:38.242Z,56.99
2023-03-10T23:46:09.189Z,55.42
2023-03-10T23:48:37.176Z,59.25
2023-03-10T23:51:12.977Z,58.22
2023-03-10T23:53:43.127Z,56.36
2023-03-10T23:56:12.419Z,56.99
2023-03-10T23:58:40.383Z,56.46
